createdAt,value
2023-02-03T00:01:27.013Z,101616.72
2023-02-03T00:03:53.564Z,101611.13
2023-02-03T00:06:20.159Z,101604.22
2023-02-03T00:08:47.312Z,101607.78
2023-02-03T00:11:14.081Z,101583.25
2023-02-03T00:13:40.861Z,101556.94
2023-02-03T00:16:07.764Z,101586.94
2023-02-03T00:18:34.475Z,101600.34
2023-02-03T00:21:00.974Z,101593.84
2023-02-03T00:23:31.947Z,101562.56
2023-02-03T00:26:07.157Z,101599.03
2023-02-03T00:28:33.687Z,101593.84
2023-02-03T00:31:00.156Z,101585.19
2023-02-03T00:33:26.616Z,101584.56
2023-02-03T00:35:53.103Z,101586.25
2023-02-03T00:38:19.565Z,101542.56
2023-02-03T00:40:53.563Z,101592.13
2023-02-03T00:43:21.310Z,101598.03
2023-02-03T00:45:48.099Z,101550.09
2023-02-03T00:48:14.769Z,101599.47
2023-02-03T00:50:41.286Z,101589.41
2023-02-03T00:53:07.775Z,101590.16
2023-02-03T00:55:34.492Z,101549.66
2023-02-03T00:58:01.009Z,101600.41
2023-02-03T01:00:27.926Z,101606.69
2023-02-03T01:02:54.769Z,101610.47
2023-02-03T01:05:21.309Z,101593.09
2023-02-03T01:07:48.060Z,101599.41
2023-02-03T01:10:15.667Z,101616.13
2023-02-03T01:12:42.177Z,101629.72
2023-02-03T01:15:08.914Z,101618.97
2023-02-03T01:17:35.467Z,101563.31
2023-02-03T01:20:01.989Z,101616.06
2023-02-03T01:22:31.618Z,101636.53
2023-02-03T01:24:58.359Z,101641.56
2023-02-03T01:27:25.003Z,101621.19
2023-02-03T01:29:51.689Z,101620.22
2023-02-03T01:32:18.138Z,101627.41
2023-02-03T01:34:45.005Z,101590.19
2023-02-03T01:37:11.839Z,101616.81
2023-02-03T01:39:38.294Z,101633.47
2023-02-03T01:42:06.019Z,101624.25
2023-02-03T01:44:42.705Z,101624.84
2023-02-03T01:47:16.293Z,101602.78
2023-02-03T01:49:48.027Z,101636.09
2023-02-03T01:52:15.200Z,101628.25
2023-02-03T01:54:44.577Z,101629.63
2023-02-03T01:57:17.136Z,101632.16
2023-02-03T01:59:43.812Z,101616.63
2023-02-03T02:02:11.648Z,101587.94
2023-02-03T02:04:58.478Z,101603.75
2023-02-03T02:07:25.506Z,101608.09
2023-02-03T02:09:52.248Z,101618.72
2023-02-03T02:12:18.877Z,101613.81
2023-02-03T02:14:45.966Z,101605.63
2023-02-03T02:17:45.054Z,101613.22
2023-02-03T02:20:14.558Z,101600.94
2023-02-03T02:23:06.109Z,101589.50
2023-02-03T02:25:51.504Z,101572.72
2023-02-03T02:28:42.001Z,101549.44
2023-02-03T02:31:38.410Z,101559.25
2023-02-03T02:34:28.954Z,101556.44
2023-02-03T02:37:07.356Z,101555.16
2023-02-03T02:39:47.193Z,101522.72
2023-02-03T02:42:43.063Z,101556.75
2023-02-03T02:45:14.604Z,101524.94
2023-02-03T02:47:41.174Z,101553.34
2023-02-03T02:50:22.789Z,101539.72
2023-02-03T02:52:50.097Z,101542.41
2023-02-03T02:55:27.740Z,101520.50
2023-02-03T02:57:56.439Z,101527.53
2023-02-03T03:00:23.509Z,101494.75
2023-02-03T03:02:50.319Z,101529.59
2023-02-03T03:05:18.144Z,101538.28
2023-02-03T03:07:55.651Z,101588.16
2023-02-03T03:10:25.017Z,101575.38
2023-02-03T03:12:55.869Z,101565.66
2023-02-03T03:15:27.480Z,101576.47
2023-02-03T03:18:11.409Z,101573.94
2023-02-03T03:20:40.390Z,101564.78
2023-02-03T03:23:08.417Z,101573.50
2023-02-03T03:25:41.093Z,101555.44
2023-02-03T03:28:15.224Z,101567.00
2023-02-03T03:30:41.938Z,101559.38
2023-02-03T03:33:08.964Z,101563.66
2023-02-03T03:36:14.915Z,101573.41
2023-02-03T03:38:46.210Z,101563.50
2023-02-03T03:41:37.391Z,101551.34
2023-02-03T03:44:05.311Z,101547.97
2023-02-03T03:46:36.117Z,101562.25
2023-02-03T03:49:04.384Z,101521.00
2023-02-03T03:51:48.193Z,101533.28
2023-02-03T03:54:17.466Z,101547.22
2023-02-03T03:56:57.061Z,101530.63
2023-02-03T03:59:25.289Z,101544.19
2023-02-03T04:01:52.704Z,101545.25
2023-02-03T04:04:19.752Z,101565.19
2023-02-03T04:06:46.236Z,101554.25
2023-02-03T04:09:12.798Z,101546.81
2023-02-03T04:11:58.028Z,101542.06
2023-02-03T04:14:24.825Z,101546.34
2023-02-03T04:16:51.451Z,101552.38
2023-02-03T04:19:18.106Z,101551.78
2023-02-03T04:21:44.744Z,101544.75
2023-02-03T04:24:12.105Z,101528.84
2023-02-03T04:26:38.998Z,101561.22
2023-02-03T04:29:05.458Z,101553.88
2023-02-03T04:31:32.290Z,101498.25
2023-02-03T04:33:58.889Z,101566.25
2023-02-03T04:36:25.409Z,101554.78
2023-02-03T04:38:51.963Z,101550.78
2023-02-03T04:41:18.523Z,101539.69
2023-02-03T04:43:45.335Z,101511.03
2023-02-03T04:46:11.965Z,101506.69
2023-02-03T04:48:39.525Z,101483.59
2023-02-03T04:51:08.201Z,101506.41
2023-02-03T04:53:34.951Z,101506.28
2023-02-03T04:56:04.216Z,101487.47
2023-02-03T04:58:30.818Z,101491.09
2023-02-03T05:00:57.689Z,101527.63
2023-02-03T05:03:26.266Z,101490.44
2023-02-03T05:05:53.199Z,101543.06
2023-02-03T05:08:20.252Z,101523.50
2023-02-03T05:10:46.768Z,101520.50
2023-02-03T05:13:13.685Z,101487.13
2023-02-03T05:15:43.408Z,101514.22
2023-02-03T05:18:10.126Z,101481.91
2023-02-03T05:20:36.899Z,101477.06
2023-02-03T05:23:03.514Z,101502.53
2023-02-03T05:25:30.332Z,101506.88
2023-02-03T05:27:57.161Z,101467.84
2023-02-03T05:30:24.070Z,101479.47
2023-02-03T05:32:50.613Z,101494.09
2023-02-03T05:35:17.326Z,101504.50
2023-02-03T05:37:45.655Z,101495.34
2023-02-03T05:40:31.883Z,101483.91
2023-02-03T05:42:58.452Z,101484.84
2023-02-03T05:45:25.135Z,101465.50
2023-02-03T05:47:51.968Z,101499.06
2023-02-03T05:50:18.559Z,101499.69
2023-02-03T05:52:45.038Z,101497.78
2023-02-03T05:55:11.556Z,101498.88
2023-02-03T05:57:38.060Z,101498.72
2023-02-03T06:00:07.445Z,101493.13
2023-02-03T06:02:34.179Z,101496.94
2023-02-03T06:05:01.575Z,101493.06
2023-02-03T06:07:28.141Z,101500.56
2023-02-03T06:09:54.670Z,101507.59
2023-02-03T06:12:22.148Z,101489.13
2023-02-03T06:14:48.880Z,101488.25
2023-02-03T06:17:15.515Z,101502.44
2023-02-03T06:19:42.073Z,101480.09
2023-02-03T06:22:08.990Z,101458.25
2023-02-03T06:24:35.578Z,101497.94
2023-02-03T06:27:02.101Z,101480.75
2023-02-03T06:29:28.644Z,101456.47
2023-02-03T06:31:55.308Z,101493.66
2023-02-03T06:34:21.926Z,101476.22
2023-02-03T06:36:49.167Z,101491.81
2023-02-03T06:39:16.131Z,101487.88
2023-02-03T06:41:42.699Z,101468.88
2023-02-03T06:44:09.161Z,101511.97
2023-02-03T06:46:35.791Z,101463.88
2023-02-03T06:49:02.310Z,101490.78
2023-02-03T06:51:29.243Z,101497.78
2023-02-03T06:53:55.988Z,101475.19
2023-02-03T06:56:22.497Z,101488.09
2023-02-03T06:58:49.034Z,101504.81
2023-02-03T07:01:15.619Z,101499.16
2023-02-03T07:03:42.396Z,101517.66
2023-02-03T07:06:08.880Z,101517.41
2023-02-03T07:08:35.328Z,101519.03
2023-02-03T07:11:01.863Z,101523.06
2023-02-03T07:13:28.675Z,101484.88
2023-02-03T07:15:55.656Z,101498.19
2023-02-03T07:21:14.051Z,101512.44
2023-02-03T07:23:40.864Z,101525.66
2023-02-03T07:26:08.366Z,101521.56
2023-02-03T07:28:35.502Z,101515.88
2023-02-03T07:31:04.757Z,101487.78
2023-02-03T07:33:32.067Z,101486.78
2023-02-03T07:35:59.684Z,101497.84
2023-02-03T07:38:27.491Z,101509.22
2023-02-03T07:40:54.436Z,101487.81
2023-02-03T07:43:20.971Z,101515.34
2023-02-03T07:45:47.995Z,101524.16
2023-02-03T07:48:14.845Z,101513.09
2023-02-03T07:50:41.514Z,101500.66
2023-02-03T07:53:10.977Z,101509.47
2023-02-03T07:55:40.537Z,101455.88
2023-02-03T07:58:07.505Z,101479.84
2023-02-03T08:00:34.693Z,101499.06
2023-02-03T08:03:01.178Z,101505.50
2023-02-03T08:05:27.987Z,101501.66
2023-02-03T08:07:54.500Z,101497.81
2023-02-03T08:10:21.167Z,101513.97
2023-02-03T08:12:48.065Z,101471.91
2023-02-03T08:15:14.643Z,101516.78
2023-02-03T08:17:42.086Z,101496.28
2023-02-03T08:20:09.587Z,101480.88
2023-02-03T08:22:36.096Z,101530.16
2023-02-03T08:25:02.743Z,101512.59
2023-02-03T08:27:29.640Z,101517.50
2023-02-03T08:29:56.129Z,101491.94
2023-02-03T08:32:22.830Z,101485.59
2023-02-03T08:34:50.400Z,101500.19
2023-02-03T08:37:19.048Z,101493.34
2023-02-03T08:39:45.501Z,101447.84
2023-02-03T08:42:12.007Z,101456.81
2023-02-03T08:44:41.385Z,101501.28
2023-02-03T08:47:08.119Z,101464.91
2023-02-03T08:49:35.908Z,101483.66
2023-02-03T08:52:02.490Z,101513.06
2023-02-03T08:54:28.938Z,101517.50
2023-02-03T08:56:55.423Z,101527.50
2023-02-03T08:59:21.963Z,101527.72
2023-02-03T09:01:48.657Z,101522.25
2023-02-03T09:04:19.693Z,101542.38
2023-02-03T09:06:47.874Z,101527.31
2023-02-03T09:09:15.101Z,101519.13
2023-02-03T09:11:42.458Z,101526.31
2023-02-03T09:14:09.703Z,101520.84
2023-02-03T09:16:36.581Z,101520.81
2023-02-03T09:19:03.119Z,101527.97
2023-02-03T09:21:37.100Z,101470.53
2023-02-03T09:24:08.827Z,101522.19
2023-02-03T09:26:35.354Z,101522.22
2023-02-03T09:29:02.266Z,101539.53
2023-02-03T09:31:28.804Z,101529.22
2023-02-03T09:33:55.428Z,101534.34
2023-02-03T09:36:21.982Z,101540.09
2023-02-03T09:38:49.269Z,101522.03
2023-02-03T09:41:34.960Z,101527.50
2023-02-03T09:44:06.585Z,101511.44
2023-02-03T09:46:36.638Z,101519.38
2023-02-03T09:49:08.876Z,101528.00
2023-02-03T09:51:50.928Z,101512.38
2023-02-03T09:54:26.609Z,101514.25
2023-02-03T09:56:55.686Z,101499.88
2023-02-03T09:59:23.066Z,101512.84
2023-02-03T10:02:02.201Z,101541.25
2023-02-03T10:04:34.803Z,101559.94
2023-02-03T10:07:25.580Z,101528.66
2023-02-03T10:10:03.061Z,101527.44
2023-02-03T10:12:54.459Z,101543.41
2023-02-03T10:15:38.448Z,101561.13
2023-02-03T10:18:07.802Z,101540.59
2023-02-03T10:20:39.907Z,101537.06
2023-02-03T10:23:20.506Z,101543.91
2023-02-03T10:25:57.400Z,101499.28
2023-02-03T10:28:28.061Z,101550.50
2023-02-03T10:30:57.325Z,101542.84
2023-02-03T10:33:29.151Z,101553.84
2023-02-03T10:35:59.533Z,101537.38
2023-02-03T10:38:41.516Z,101557.50
2023-02-03T10:41:08.250Z,101542.75
2023-02-03T10:43:51.705Z,101562.56
2023-02-03T10:46:29.223Z,101572.22
2023-02-03T10:48:56.321Z,101566.06
2023-02-03T10:51:28.773Z,101557.91
2023-02-03T10:53:55.389Z,101521.66
2023-02-03T10:56:35.132Z,101517.28
2023-02-03T10:59:01.907Z,101515.81
2023-02-03T11:01:38.806Z,101544.91
2023-02-03T11:04:06.841Z,101533.88
2023-02-03T11:06:35.290Z,101521.34
2023-02-03T11:09:02.163Z,101561.47
2023-02-03T11:11:32.407Z,101550.63
2023-02-03T11:14:05.066Z,101577.34
2023-02-03T11:16:33.655Z,101562.00
2023-02-03T11:19:19.535Z,101557.59
2023-02-03T11:21:54.314Z,101540.03
2023-02-03T11:24:28.965Z,101562.53
2023-02-03T11:27:03.131Z,101577.97
2023-02-03T11:29:32.288Z,101575.72
2023-02-03T11:32:01.837Z,101557.44
2023-02-03T11:34:30.575Z,101579.78
2023-02-03T11:36:57.389Z,101543.41
2023-02-03T11:39:29.980Z,101547.97
2023-02-03T11:41:56.957Z,101579.13
2023-02-03T11:44:26.317Z,101541.81
2023-02-03T11:46:59.133Z,101573.72
2023-02-03T11:50:03.799Z,101551.16
2023-02-03T11:52:38.104Z,101551.44
2023-02-03T11:55:17.577Z,101543.53
2023-02-03T11:58:10.251Z,101531.19
2023-02-03T12:00:58.395Z,101522.34
2023-02-03T12:03:37.198Z,101541.81
2023-02-03T12:06:14.652Z,101515.50
2023-02-03T12:08:54.923Z,101549.28
2023-02-03T12:11:35.983Z,101559.19
2023-02-03T12:14:25.050Z,101564.56
2023-02-03T12:17:33.777Z,101568.44
2023-02-03T12:20:06.828Z,101575.63
2023-02-03T12:22:45.031Z,101575.25
2023-02-03T12:25:26.669Z,101554.09
2023-02-03T12:28:10.069Z,101556.59
2023-02-03T12:30:46.832Z,101558.00
2023-02-03T12:33:21.050Z,101523.16
2023-02-03T12:36:13.233Z,101560.84
2023-02-03T12:39:21.597Z,101537.06
2023-02-03T12:42:01.941Z,101571.66
2023-02-03T12:44:42.588Z,101572.78
2023-02-03T12:47:16.947Z,101579.78
2023-02-03T12:50:07.635Z,101588.41
2023-02-03T12:52:57.263Z,101605.56
2023-02-03T12:55:46.638Z,101601.28
2023-02-03T12:58:40.363Z,101566.81
2023-02-03T13:01:23.496Z,101594.97
2023-02-03T13:04:14.317Z,101559.72
2023-02-03T13:07:04.813Z,101600.47
2023-02-03T13:09:51.444Z,101598.44
2023-02-03T13:12:32.562Z,101601.59
2023-02-03T13:15:26.787Z,101600.16
2023-02-03T13:17:55.774Z,101601.50
2023-02-03T13:20:25.412Z,101615.63
2023-02-03T13:22:53.349Z,101617.69
2023-02-03T13:25:40.964Z,101622.97
2023-02-03T13:28:29.345Z,101622.41
2023-02-03T13:31:11.119Z,101618.69
2023-02-03T13:33:59.406Z,101610.03
2023-02-03T13:36:38.004Z,101607.84
2023-02-03T13:39:42.993Z,101605.97
2023-02-03T13:42:33.000Z,101619.56
2023-02-03T13:45:12.431Z,101612.22
2023-02-03T13:47:39.528Z,101625.28
2023-02-03T13:50:09.939Z,101625.63
2023-02-03T13:52:47.812Z,101604.63
2023-02-03T13:55:27.185Z,101577.59
2023-02-03T13:57:54.085Z,101621.34
2023-02-03T14:00:45.601Z,101645.47
2023-02-03T14:03:24.172Z,101642.53
2023-02-03T14:05:55.293Z,101632.47
2023-02-03T14:08:28.062Z,101648.41
2023-02-03T14:11:32.626Z,101662.41
2023-02-03T14:14:08.374Z,101664.88
2023-02-03T14:16:48.076Z,101673.97
2023-02-03T14:19:29.918Z,101682.69
2023-02-03T14:22:04.845Z,101685.78
2023-02-03T14:24:33.489Z,101689.88
2023-02-03T14:27:02.516Z,101694.34
2023-02-03T14:29:36.488Z,101704.63
2023-02-03T14:32:05.204Z,101702.75
2023-02-03T14:34:45.224Z,101689.34
2023-02-03T14:37:29.941Z,101677.72
2023-02-03T14:40:11.290Z,101693.97
2023-02-03T14:42:53.746Z,101687.00
2023-02-03T14:45:39.280Z,101719.13
2023-02-03T14:48:26.999Z,101714.47
2023-02-03T14:51:17.845Z,101673.44
2023-02-03T14:54:27.179Z,101709.84
2023-02-03T14:57:19.619Z,101715.06
2023-02-03T14:59:49.578Z,101703.91
2023-02-03T15:02:23.318Z,101695.81
2023-02-03T15:04:51.879Z,101697.69
2023-02-03T15:07:41.754Z,101732.38
2023-02-03T15:10:20.445Z,101725.75
2023-02-03T15:12:48.404Z,101743.38
2023-02-03T15:15:33.088Z,101734.91
2023-02-03T15:18:12.739Z,101727.84
2023-02-03T15:20:43.557Z,101711.00
2023-02-03T15:23:24.348Z,101745.19
2023-02-03T15:26:02.200Z,101743.31
2023-02-03T15:28:30.195Z,101748.78
2023-02-03T15:31:11.760Z,101721.00
2023-02-03T15:33:38.645Z,101753.16
2023-02-03T15:36:27.392Z,101766.47
2023-02-03T15:38:59.285Z,101769.47
2023-02-03T15:41:26.531Z,101735.84
2023-02-03T15:43:57.962Z,101776.88
2023-02-03T15:46:38.745Z,101772.00
2023-02-03T15:49:11.984Z,101778.78
2023-02-03T15:51:48.743Z,101759.16
2023-02-03T15:54:30.495Z,101779.59
2023-02-03T15:57:00.421Z,101789.25
2023-02-03T15:59:32.616Z,101782.72
2023-02-03T16:02:01.640Z,101744.94
2023-02-03T16:04:28.253Z,101797.75
2023-02-03T16:06:55.892Z,101792.13
2023-02-03T16:09:34.960Z,101779.81
2023-02-03T16:12:31.391Z,101798.28
2023-02-03T16:15:03.184Z,101750.59
2023-02-03T16:17:35.646Z,101789.75
2023-02-03T16:20:23.600Z,101815.22
2023-02-03T16:23:21.008Z,101818.94
2023-02-03T16:26:13.742Z,101821.75
2023-02-03T16:28:59.128Z,101793.72
2023-02-03T16:31:44.045Z,101841.16
2023-02-03T16:34:32.860Z,101839.03
2023-02-03T16:37:18.031Z,101845.38
2023-02-03T16:40:03.272Z,101814.53
2023-02-03T16:42:56.660Z,101863.03
2023-02-03T16:45:41.780Z,101862.06
2023-02-03T16:48:30.660Z,101863.16
2023-02-03T16:51:12.178Z,101857.94
2023-02-03T16:53:38.945Z,101862.75
2023-02-03T16:56:05.979Z,101869.44
2023-02-03T16:58:32.619Z,101824.88
2023-02-03T17:01:01.343Z,101857.34
2023-02-03T17:03:28.705Z,101881.13
2023-02-03T17:05:56.058Z,101846.03
2023-02-03T17:08:24.902Z,101854.31
2023-02-03T17:10:51.760Z,101842.53
2023-02-03T17:13:20.231Z,101819.09
2023-02-03T17:15:49.818Z,101893.47
2023-02-03T17:18:16.668Z,101884.94
2023-02-03T17:20:44.162Z,101885.47
2023-02-03T17:23:11.234Z,101889.03
2023-02-03T17:25:38.829Z,101902.09
2023-02-03T17:28:06.413Z,101903.91
2023-02-03T17:30:35.090Z,101905.09
2023-02-03T17:33:02.922Z,101913.31
2023-02-03T17:35:29.796Z,101906.78
2023-02-03T17:37:56.637Z,101909.56
2023-02-03T17:54:06.585Z,101920.06
2023-02-03T17:56:35.492Z,101882.44
2023-02-03T17:59:03.813Z,101924.88
2023-02-03T18:01:30.759Z,101918.06
2023-02-03T18:03:59.315Z,101901.00
2023-02-03T18:06:28.001Z,101934.69
2023-02-03T18:09:00.993Z,101935.75
2023-02-03T18:11:28.992Z,101943.91
2023-02-03T18:13:55.941Z,101937.94
2023-02-03T18:16:29.252Z,101933.81
2023-02-03T18:18:56.611Z,101951.16
2023-02-03T18:21:24.581Z,101940.84
2023-02-03T18:23:51.871Z,101947.75
2023-02-03T18:26:19.804Z,101960.09
2023-02-03T18:28:46.965Z,101935.59
2023-02-03T18:31:15.704Z,101945.16
2023-02-03T18:33:43.907Z,101954.94
2023-02-03T18:36:12.738Z,101938.75
2023-02-03T18:38:40.870Z,101962.38
2023-02-03T18:41:17.801Z,101965.13
2023-02-03T18:43:44.960Z,101965.69
2023-02-03T18:46:14.336Z,101970.44
2023-02-03T18:48:40.906Z,101975.47
2023-02-03T18:51:12.979Z,101975.69
2023-02-03T18:53:44.991Z,101977.16
2023-02-03T18:56:16.768Z,101977.66
2023-02-03T18:58:46.643Z,101980.69
2023-02-03T19:01:27.236Z,101982.69
2023-02-03T19:03:58.324Z,101983.19
2023-02-03T19:06:29.130Z,101989.06
2023-02-03T19:08:56.225Z,101983.66
2023-02-03T19:11:26.204Z,102000.47
2023-02-03T19:13:53.025Z,102000.06
2023-02-03T19:16:19.812Z,102007.59
2023-02-03T19:18:46.954Z,102008.41
2023-02-03T19:21:14.339Z,102010.44
2023-02-03T19:23:41.673Z,102020.66
2023-02-03T19:26:09.874Z,102004.50
2023-02-03T19:28:37.159Z,102004.66
2023-02-03T19:31:09.016Z,102008.56
2023-02-03T19:33:36.964Z,101984.91
2023-02-03T19:36:07.606Z,101992.97
2023-02-03T19:38:35.257Z,102031.13
2023-02-03T19:41:02.541Z,101988.56
2023-02-03T19:43:32.416Z,102043.38
2023-02-03T19:45:59.951Z,102045.34
2023-02-03T19:48:26.976Z,102043.69
2023-02-03T19:50:54.347Z,102015.75
2023-02-03T19:53:21.709Z,102054.06
2023-02-03T19:55:49.042Z,102050.31
2023-02-03T19:58:16.532Z,102031.38
2023-02-03T20:00:43.439Z,102029.75
2023-02-03T20:03:10.754Z,102037.69
2023-02-03T20:05:38.255Z,102061.25
2023-02-03T20:08:06.455Z,102086.50
2023-02-03T20:10:33.652Z,102072.13
2023-02-03T20:13:00.905Z,102069.41
2023-02-03T20:15:27.891Z,102060.13
2023-02-03T20:17:54.863Z,102027.00
2023-02-03T20:20:23.965Z,102042.69
2023-02-03T20:22:50.513Z,102037.53
2023-02-03T20:25:17.425Z,102047.53
2023-02-03T20:27:44.179Z,102063.56
2023-02-03T20:30:12.001Z,102067.75
2023-02-03T20:32:39.063Z,102095.25
2023-02-03T20:35:06.483Z,102090.91
2023-02-03T20:37:36.096Z,102105.97
2023-02-03T20:40:06.947Z,102088.94
2023-02-03T20:42:34.103Z,102113.75
2023-02-03T20:45:01.116Z,102118.41
2023-02-03T20:47:28.133Z,102096.16
2023-02-03T20:49:56.082Z,102102.56
2023-02-03T20:52:23.175Z,102111.00
2023-02-03T20:54:50.025Z,102068.56
2023-02-03T20:57:18.790Z,102107.13
2023-02-03T20:59:46.472Z,102128.97
2023-02-03T21:02:30.777Z,102129.91
2023-02-03T21:04:58.127Z,102122.72
2023-02-03T21:07:30.794Z,102130.72
2023-02-03T21:10:01.706Z,102097.13
2023-02-03T21:12:28.856Z,102091.91
2023-02-03T21:14:56.393Z,102124.53
2023-02-03T21:17:27.279Z,102137.00
2023-02-03T21:19:55.435Z,102097.06
2023-02-03T21:22:27.398Z,102148.63
2023-02-03T21:24:57.912Z,102156.19
2023-02-03T21:27:30.354Z,102158.94
2023-02-03T21:29:58.686Z,102150.78
2023-02-03T21:32:29.766Z,102166.34
2023-02-03T21:34:56.413Z,102168.56
2023-02-03T21:37:23.911Z,102170.69
2023-02-03T21:39:50.886Z,102175.75
2023-02-03T21:42:42.583Z,102156.25
2023-02-03T21:45:19.804Z,102178.94
2023-02-03T21:47:48.563Z,102127.13
2023-02-03T21:50:36.379Z,102183.41
2023-02-03T21:53:09.148Z,102196.50
2023-02-03T21:55:41.571Z,102198.81
2023-02-03T21:58:30.391Z,102171.78
2023-02-03T22:00:59.616Z,102196.19
2023-02-03T22:03:38.012Z,102201.53
2023-02-03T22:06:16.768Z,102204.47
2023-02-03T22:08:51.703Z,102210.16
2023-02-03T22:11:20.185Z,102185.56
2023-02-03T22:13:48.013Z,102199.28
2023-02-03T22:16:17.138Z,102184.81
2023-02-03T22:18:47.950Z,102192.19
2023-02-03T22:21:15.538Z,102185.41
2023-02-03T22:23:42.632Z,102205.38
2023-02-03T22:26:10.798Z,102210.75
2023-02-03T22:28:37.836Z,102210.50
2023-02-03T22:31:05.219Z,102179.22
2023-02-03T22:33:32.145Z,102209.56
2023-02-03T22:35:58.612Z,102216.97
2023-02-03T22:38:25.693Z,102219.19
2023-02-03T22:40:53.016Z,102180.25
2023-02-03T22:43:19.920Z,102224.25
2023-02-03T22:45:46.511Z,102199.91
2023-02-03T22:48:13.080Z,102228.47
2023-02-03T22:50:39.781Z,102230.09
2023-02-03T22:53:07.036Z,102219.13
2023-02-03T22:55:33.738Z,102233.59
2023-02-03T22:58:00.262Z,102239.13
2023-02-03T23:00:27.200Z,102243.63
2023-02-03T23:02:53.917Z,102249.94
2023-02-03T23:05:20.480Z,102246.78
2023-02-03T23:07:47.841Z,102253.31
2023-02-03T23:10:18.858Z,102242.03
2023-02-03T23:12:45.722Z,102234.50
2023-02-03T23:15:13.211Z,102237.75
2023-02-03T23:17:40.037Z,102231.03
2023-02-03T23:20:08.210Z,102259.72
2023-02-03T23:22:34.859Z,102239.06
2023-02-03T23:25:02.478Z,102265.53
2023-02-03T23:27:29.133Z,102262.53
2023-02-03T23:29:55.750Z,102253.81
2023-02-03T23:32:22.385Z,102236.06
2023-02-03T23:35:07.429Z,102284.44
2023-02-03T23:37:34.280Z,102290.50
2023-02-03T23:40:00.888Z,102270.47
2023-02-03T23:42:27.412Z,102296.38
2023-02-03T23:44:53.958Z,102269.53
2023-02-03T23:47:20.456Z,102301.72
2023-02-03T23:49:47.230Z,102260.88
2023-02-03T23:52:13.718Z,102293.13
2023-02-03T23:54:40.395Z,102297.63
2023-02-03T23:57:06.919Z,102245.13
2023-02-03T23:59:33.491Z,102299.84
